Vanderwagen, New Mexico
Current Conditions -  °F | °C
As of 2:53 AM on Friday 19 Dec 2014 (Local Time) from KGUP Reporting Station
Haze Haze  
Wind Chill: 23°   Ceiling: 200
Heat Index: 23°   Visibility: 0.25mi
Dew Point: 17°   Wind: 3mph
Humidity: 78%   Direction: 90°E
Pressure: 30.2"   Gusts: NA
Location:  35.27°N, 108.75°W
Report Text: KGUP 190953Z AUTO 09003KT 1/4SM HZ VV002 M05/M08 A3020 RMK AO2 SLP251 I1000 T10501083 $
Loading
Personal Weather Stations






























Interactive Weather Map New forecast layout! Learn more

10-Day Weather Forecast

Advertisements
Track Severe Weather on mobile